createdAt,value
2022-12-19T00:01:54.708Z,30.88
2022-12-19T00:03:59.670Z,31.67
2022-12-19T00:06:04.285Z,32.40
2022-12-19T00:08:17.227Z,34.38
2022-12-19T00:10:21.694Z,35.85
2022-12-19T00:12:28.198Z,34.03
2022-12-19T00:14:31.488Z,33.88
2022-12-19T00:16:36.608Z,30.63
2022-12-19T00:18:41.549Z,33.40
2022-12-19T00:20:44.836Z,29.30
2022-12-19T00:22:48.294Z,29.23
2022-12-19T00:24:54.666Z,30.73
2022-12-19T00:26:58.191Z,35.75
2022-12-19T00:29:09.824Z,39.58
2022-12-19T00:31:16.838Z,29.35
2022-12-19T00:33:21.489Z,32.88
2022-12-19T00:35:25.069Z,31.17
2022-12-19T00:37:29.481Z,37.55
2022-12-19T00:39:33.085Z,34.03
2022-12-19T00:41:41.451Z,30.08
2022-12-19T00:43:54.104Z,34.00
2022-12-19T00:45:57.419Z,29.48
2022-12-19T00:48:00.702Z,30.35
2022-12-19T00:50:05.909Z,27.73
2022-12-19T00:52:09.165Z,27.75
2022-12-19T00:54:12.442Z,35.88
2022-12-19T00:56:19.363Z,28.08
2022-12-19T00:58:23.335Z,30.95
2022-12-19T01:00:26.870Z,27.33
2022-12-19T01:02:30.678Z,26.65
2022-12-19T01:04:38.380Z,28.58
2022-12-19T01:06:46.292Z,27.85
2022-12-19T01:08:50.668Z,29.05
2022-12-19T01:10:54.168Z,31.60
2022-12-19T01:12:56.536Z,35.38
2022-12-19T01:15:04.536Z,32.15
2022-12-19T01:17:08.748Z,25.65
2022-12-19T01:19:12.250Z,35.00
2022-12-19T01:21:15.878Z,28.35
2022-12-19T01:23:20.741Z,32.28
2022-12-19T01:25:24.167Z,23.45
2022-12-19T01:27:27.792Z,27.67
2022-12-19T01:29:31.477Z,31.48
2022-12-19T01:31:36.727Z,30.20
2022-12-19T01:33:43.151Z,32.65
2022-12-19T01:35:49.163Z,26.92
2022-12-19T01:37:54.666Z,29.58
2022-12-19T01:40:14.629Z,26.83
2022-12-19T01:42:22.946Z,22.13
2022-12-19T01:44:27.666Z,23.67
2022-12-19T01:46:36.799Z,26.00
2022-12-19T01:48:44.077Z,20.75
2022-12-19T01:51:01.120Z,24.75
2022-12-19T01:53:07.341Z,26.65
2022-12-19T01:55:12.910Z,24.92
2022-12-19T01:57:17.664Z,28.92
2022-12-19T01:59:24.332Z,29.88
2022-12-19T02:01:28.516Z,31.38
2022-12-19T02:03:35.130Z,25.67
2022-12-19T02:05:39.538Z,27.40
2022-12-19T02:07:44.657Z,22.52
2022-12-19T02:09:56.984Z,25.48
2022-12-19T02:12:02.426Z,29.25
2022-12-19T02:14:06.020Z,26.60
2022-12-19T02:16:21.444Z,24.95
2022-12-19T02:18:39.819Z,25.00
2022-12-19T02:21:24.091Z,27.60
2022-12-19T02:23:54.659Z,25.40
2022-12-19T02:26:15.909Z,21.30
2022-12-19T02:28:44.454Z,24.92
2022-12-19T02:31:16.373Z,27.50
2022-12-19T02:33:27.853Z,22.42
2022-12-19T02:35:37.671Z,25.13
2022-12-19T02:37:48.347Z,26.25
2022-12-19T02:39:58.304Z,26.52
2022-12-19T02:42:03.116Z,24.17
2022-12-19T02:44:06.998Z,32.08
2022-12-19T02:46:13.241Z,25.75
2022-12-19T02:48:19.424Z,23.25
2022-12-19T02:50:23.069Z,21.60
2022-12-19T02:52:49.789Z,25.48
2022-12-19T02:54:57.164Z,22.23
2022-12-19T02:57:09.401Z,23.23
2022-12-19T02:59:36.633Z,28.83
2022-12-19T03:01:49.852Z,30.88
2022-12-19T03:04:06.787Z,23.70
2022-12-19T03:06:24.335Z,24.45
2022-12-19T03:08:33.945Z,25.88
2022-12-19T03:10:43.348Z,21.88
2022-12-19T03:12:51.563Z,22.60
2022-12-19T03:14:56.101Z,22.23
2022-12-19T03:17:05.764Z,26.63
2022-12-19T03:19:11.767Z,26.33
2022-12-19T03:21:21.640Z,24.33
2022-12-19T03:23:25.038Z,23.50
2022-12-19T03:25:31.961Z,24.75
2022-12-19T03:27:38.174Z,27.52
2022-12-19T03:29:46.532Z,25.38
2022-12-19T03:31:50.224Z,25.20
2022-12-19T03:33:58.403Z,23.42
2022-12-19T03:36:07.929Z,27.05
2022-12-19T03:38:13.723Z,23.65
2022-12-19T03:40:19.433Z,24.65
2022-12-19T03:42:46.029Z,25.10
2022-12-19T03:44:51.295Z,26.60
2022-12-19T03:47:00.744Z,25.10
2022-12-19T03:49:05.775Z,30.65
2022-12-19T03:51:22.203Z,28.23
2022-12-19T03:53:40.615Z,30.17
2022-12-19T03:55:50.701Z,24.58
2022-12-19T03:57:58.765Z,25.90
2022-12-19T04:00:06.092Z,29.58
2022-12-19T04:02:11.417Z,35.90
2022-12-19T04:04:17.271Z,34.13
2022-12-19T04:06:20.770Z,26.55
2022-12-19T04:08:25.212Z,25.23
2022-12-19T04:10:30.688Z,27.17
2022-12-19T04:12:38.852Z,23.98
2022-12-19T04:14:43.306Z,21.40
2022-12-19T04:16:50.282Z,23.80
2022-12-19T04:19:03.947Z,24.40
2022-12-19T04:21:14.373Z,26.83
2022-12-19T04:23:24.421Z,27.00
2022-12-19T04:25:32.220Z,24.77
2022-12-19T04:27:39.333Z,27.35
2022-12-19T04:29:43.728Z,24.83
2022-12-19T04:31:47.703Z,21.25
2022-12-19T04:33:51.474Z,24.63
2022-12-19T04:35:55.053Z,19.80
2022-12-19T04:37:59.883Z,28.67
2022-12-19T04:40:03.573Z,28.35
2022-12-19T04:42:06.935Z,23.45
2022-12-19T04:44:10.595Z,22.80
2022-12-19T04:46:14.286Z,27.38
2022-12-19T04:48:17.837Z,24.63
2022-12-19T04:50:21.680Z,23.88
2022-12-19T04:52:25.455Z,24.40
2022-12-19T04:54:30.077Z,21.73
2022-12-19T04:56:33.507Z,23.55
2022-12-19T04:58:36.833Z,25.42
2022-12-19T05:00:40.432Z,28.85
2022-12-19T05:02:44.593Z,23.50
2022-12-19T05:04:48.306Z,23.33
2022-12-19T05:06:51.969Z,23.83
2022-12-19T05:08:55.643Z,22.08
2022-12-19T05:11:02.179Z,23.70
2022-12-19T05:13:05.735Z,19.77
2022-12-19T05:15:10.414Z,23.10
2022-12-19T05:17:13.950Z,23.80
2022-12-19T05:19:17.228Z,20.83
2022-12-19T05:21:21.420Z,21.48
2022-12-19T05:23:25.104Z,25.92
2022-12-19T05:25:28.949Z,22.85
2022-12-19T05:27:33.708Z,24.15
2022-12-19T05:29:37.008Z,26.95
2022-12-19T05:31:40.354Z,27.08
2022-12-19T05:33:44.743Z,23.58
2022-12-19T05:35:49.688Z,22.77
2022-12-19T05:37:53.388Z,26.08
2022-12-19T05:39:56.908Z,24.25
2022-12-19T05:42:00.167Z,23.67
2022-12-19T05:44:05.507Z,20.52
2022-12-19T05:46:09.681Z,21.30
2022-12-19T05:48:13.448Z,26.33
2022-12-19T05:50:17.897Z,23.83
2022-12-19T05:52:21.220Z,21.58
2022-12-19T05:54:24.920Z,22.23
2022-12-19T05:56:28.739Z,20.10
2022-12-19T05:58:32.224Z,25.65
2022-12-19T06:00:37.198Z,21.92
2022-12-19T06:02:40.843Z,22.23
2022-12-19T06:04:44.643Z,24.38
2022-12-19T06:06:48.349Z,26.45
2022-12-19T06:08:55.114Z,23.17
2022-12-19T06:11:01.926Z,29.20
2022-12-19T06:13:05.268Z,21.58
2022-12-19T06:15:10.262Z,22.95
2022-12-19T06:17:14.957Z,25.83
2022-12-19T06:19:18.228Z,21.98
2022-12-19T06:21:23.716Z,22.92
2022-12-19T06:23:27.418Z,28.20
2022-12-19T06:25:30.664Z,22.05
2022-12-19T06:27:34.509Z,29.75
2022-12-19T06:29:37.692Z,21.38
2022-12-19T06:31:41.268Z,23.40
2022-12-19T06:33:46.628Z,28.75
2022-12-19T06:35:49.862Z,22.02
2022-12-19T06:37:56.590Z,21.85
2022-12-19T06:40:04.349Z,22.90
2022-12-19T06:42:25.195Z,25.75
2022-12-19T06:44:28.889Z,21.85
2022-12-19T06:46:33.068Z,21.77
2022-12-19T06:48:36.621Z,22.88
2022-12-19T06:50:41.896Z,24.15
2022-12-19T06:52:45.522Z,28.50
2022-12-19T06:54:48.847Z,31.92
2022-12-19T06:56:52.687Z,28.38
2022-12-19T06:58:56.360Z,29.63
2022-12-19T07:00:59.752Z,28.48
2022-12-19T07:03:06.244Z,28.63
2022-12-19T07:05:11.136Z,31.33
2022-12-19T07:07:15.868Z,27.30
2022-12-19T07:09:19.457Z,24.52
2022-12-19T07:11:22.950Z,25.35
2022-12-19T07:13:27.594Z,20.48
2022-12-19T07:15:33.520Z,27.20
2022-12-19T07:17:38.448Z,21.95
2022-12-19T07:19:42.355Z,25.38
2022-12-19T07:21:46.229Z,27.85
2022-12-19T07:23:51.015Z,25.25
2022-12-19T07:25:54.270Z,23.42
2022-12-19T07:27:58.379Z,23.73
2022-12-19T07:30:02.009Z,21.88
2022-12-19T07:32:06.770Z,24.88
2022-12-19T07:34:10.162Z,25.80
2022-12-19T07:36:13.489Z,24.67
2022-12-19T07:38:17.087Z,22.63
2022-12-19T07:40:24.864Z,21.15
2022-12-19T07:42:32.484Z,25.48
2022-12-19T07:44:36.318Z,21.27
2022-12-19T07:46:39.784Z,22.02
2022-12-19T07:48:43.155Z,25.52
2022-12-19T07:50:47.710Z,26.63
2022-12-19T07:52:50.965Z,22.95
2022-12-19T07:54:54.710Z,27.25
2022-12-19T07:56:59.437Z,24.77
2022-12-19T07:59:02.989Z,25.23
2022-12-19T08:01:07.436Z,21.17
2022-12-19T08:03:11.463Z,22.67
2022-12-19T08:05:15.225Z,25.13
2022-12-19T08:07:18.559Z,24.88
2022-12-19T08:09:21.893Z,20.05
2022-12-19T08:11:27.983Z,21.42
2022-12-19T08:13:38.776Z,23.13
2022-12-19T08:15:44.339Z,23.27
2022-12-19T08:17:48.250Z,28.63
2022-12-19T08:19:51.956Z,19.35
2022-12-19T08:21:55.274Z,20.60
2022-12-19T08:23:58.919Z,24.73
2022-12-19T08:26:04.411Z,19.58
2022-12-19T08:28:07.650Z,20.63
2022-12-19T08:30:14.154Z,23.20
2022-12-19T08:32:21.286Z,22.13
2022-12-19T08:34:25.139Z,26.30
2022-12-19T08:36:29.012Z,20.38
2022-12-19T08:38:32.665Z,26.42
2022-12-19T08:40:36.259Z,21.67
2022-12-19T08:42:39.432Z,21.23
2022-12-19T08:44:42.813Z,22.70
2022-12-19T08:46:50.270Z,23.13
2022-12-19T08:48:54.471Z,19.65
2022-12-19T08:50:59.489Z,24.95
2022-12-19T08:53:03.439Z,22.98
2022-12-19T08:55:07.956Z,28.52
2022-12-19T08:57:11.360Z,26.40
2022-12-19T08:59:16.068Z,28.67
2022-12-19T09:01:35.346Z,32.67
2022-12-19T09:03:47.885Z,21.88
2022-12-19T09:06:09.241Z,31.83
2022-12-19T09:08:17.243Z,26.63
2022-12-19T09:10:21.186Z,31.30
2022-12-19T09:12:24.523Z,25.02
2022-12-19T09:14:28.122Z,29.40
2022-12-19T09:16:31.668Z,25.67
2022-12-19T09:18:35.930Z,27.55
2022-12-19T09:20:40.729Z,27.52
2022-12-19T09:22:43.948Z,29.20
2022-12-19T09:24:47.817Z,24.92
2022-12-19T09:26:51.308Z,24.55
2022-12-19T09:28:54.706Z,26.10
2022-12-19T09:30:58.894Z,29.00
2022-12-19T09:33:02.288Z,25.75
2022-12-19T09:35:07.071Z,26.80
2022-12-19T09:37:16.696Z,28.92
2022-12-19T09:39:20.806Z,26.75
2022-12-19T09:41:40.110Z,27.15
2022-12-19T09:43:58.873Z,24.77
2022-12-19T09:46:16.507Z,21.67
2022-12-19T09:48:24.004Z,22.88
2022-12-19T09:50:37.377Z,24.85
2022-12-19T09:52:50.700Z,27.05
2022-12-19T09:54:58.880Z,24.33
2022-12-19T09:57:05.973Z,23.52
2022-12-19T09:59:16.494Z,23.52
2022-12-19T10:01:25.493Z,21.65
2022-12-19T10:03:39.612Z,23.73
2022-12-19T10:06:16.712Z,22.70
2022-12-19T10:08:19.966Z,21.98
2022-12-19T10:12:37.902Z,23.60
2022-12-19T10:13:13.673Z,26.35
2022-12-19T10:15:27.143Z,25.02
2022-12-19T10:17:39.528Z,25.08
2022-12-19T10:19:57.120Z,29.45
2022-12-19T10:22:18.272Z,27.42
2022-12-19T10:24:37.328Z,27.23
2022-12-19T10:26:48.335Z,29.02
2022-12-19T10:29:05.409Z,29.77
2022-12-19T10:31:21.854Z,32.05
2022-12-19T10:33:33.691Z,33.78
2022-12-19T10:35:42.612Z,29.63
2022-12-19T10:37:51.546Z,28.15
2022-12-19T10:40:22.543Z,26.23
2022-12-19T10:42:42.833Z,30.25
2022-12-19T10:44:48.816Z,26.10
2022-12-19T10:46:53.296Z,29.90
2022-12-19T10:48:56.692Z,36.40
2022-12-19T10:51:06.061Z,27.60
2022-12-19T10:53:12.908Z,25.77
2022-12-19T10:55:40.187Z,27.15
2022-12-19T10:57:44.390Z,29.23
2022-12-19T10:59:56.863Z,25.95
2022-12-19T11:02:03.112Z,28.33
2022-12-19T11:04:32.315Z,28.55
2022-12-19T11:06:51.921Z,24.75
2022-12-19T11:09:27.768Z,22.60
2022-12-19T11:15:33.021Z,28.60
2022-12-19T11:18:57.261Z,26.23
2022-12-19T11:22:38.755Z,25.85
2022-12-19T11:29:26.395Z,27.65
2022-12-19T11:29:31.803Z,22.45
2022-12-19T11:29:33.256Z,29.00
2022-12-19T11:30:37.986Z,27.48
2022-12-19T11:30:49.021Z,24.55
2022-12-19T11:33:56.841Z,27.73
2022-12-19T11:36:03.050Z,27.20
2022-12-19T11:38:08.531Z,25.48
2022-12-19T11:40:18.901Z,27.50
2022-12-19T11:42:30.987Z,31.33
2022-12-19T11:44:40.612Z,26.58
2022-12-19T11:46:49.419Z,28.23
2022-12-19T11:48:55.313Z,25.35
2022-12-19T11:51:11.082Z,27.60
2022-12-19T11:53:19.424Z,24.13
2022-12-19T11:55:27.543Z,29.67
2022-12-19T11:57:33.217Z,26.95
2022-12-19T11:59:38.513Z,28.52
2022-12-19T12:01:47.890Z,29.33
2022-12-19T12:04:10.052Z,24.95
2022-12-19T12:06:17.708Z,31.80
2022-12-19T12:11:02.033Z,26.50
2022-12-19T12:17:30.869Z,25.83
2022-12-19T12:22:55.063Z,33.08
2022-12-19T12:31:01.216Z,30.83
2022-12-19T12:31:22.236Z,27.70
2022-12-19T12:31:28.530Z,29.75
2022-12-19T12:31:46.928Z,29.20
2022-12-19T12:31:52.359Z,28.60
2022-12-19T12:31:58.104Z,31.40
2022-12-19T12:35:52.121Z,24.55
2022-12-19T12:40:34.076Z,25.75
2022-12-19T12:42:50.837Z,29.60
2022-12-19T12:44:58.314Z,23.42
2022-12-19T12:47:06.673Z,28.23
2022-12-19T12:49:29.939Z,27.33
2022-12-19T12:51:35.418Z,27.25
2022-12-19T12:53:41.956Z,27.67
2022-12-19T12:55:45.900Z,25.92
2022-12-19T12:57:49.491Z,28.73
2022-12-19T13:00:19.337Z,27.30
2022-12-19T13:02:25.753Z,29.33
2022-12-19T13:04:33.168Z,27.10
2022-12-19T13:06:39.311Z,25.27
2022-12-19T13:08:48.845Z,28.77
2022-12-19T13:10:56.643Z,27.00
2022-12-19T13:13:01.669Z,29.52
2022-12-19T13:15:37.274Z,31.02
2022-12-19T13:18:02.538Z,28.25
2022-12-19T13:20:47.046Z,27.65
2022-12-19T13:23:06.206Z,27.63
2022-12-19T13:25:46.398Z,24.92
2022-12-19T13:27:50.808Z,29.75
2022-12-19T13:29:57.687Z,28.67
2022-12-19T13:32:17.801Z,27.95
2022-12-19T13:34:22.181Z,28.50
2022-12-19T13:39:50.929Z,29.25
2022-12-19T13:39:58.211Z,30.42
2022-12-19T13:42:24.999Z,29.38
2022-12-19T13:44:29.020Z,27.55
2022-12-19T13:46:41.512Z,24.63
2022-12-19T13:48:49.002Z,28.45
2022-12-19T13:50:54.025Z,34.25
2022-12-19T13:52:57.938Z,26.80
2022-12-19T13:55:01.435Z,28.98
2022-12-19T13:57:09.329Z,27.52
2022-12-19T13:59:14.563Z,30.83
2022-12-19T14:01:21.432Z,27.95
2022-12-19T14:03:37.593Z,25.35
2022-12-19T14:06:16.562Z,38.10
2022-12-19T14:08:07.877Z,29.00
2022-12-19T14:11:40.118Z,32.30
2022-12-19T14:13:57.406Z,34.75
2022-12-19T14:15:30.104Z,38.92
2022-12-19T14:17:33.524Z,32.70
2022-12-19T14:19:41.084Z,25.35
2022-12-19T14:22:10.740Z,33.35
2022-12-19T14:24:17.111Z,34.63
2022-12-19T14:28:17.438Z,30.48
2022-12-19T14:28:56.546Z,29.65
2022-12-19T14:31:06.844Z,35.83
2022-12-19T14:33:45.929Z,36.50
2022-12-19T14:36:06.507Z,32.70
2022-12-19T14:39:20.892Z,30.60
2022-12-19T14:41:08.875Z,34.60
2022-12-19T14:43:58.575Z,30.08
2022-12-19T14:52:34.428Z,39.90
2022-12-19T14:54:07.891Z,30.52
2022-12-19T14:54:28.611Z,34.80
2022-12-19T14:54:48.467Z,38.22
2022-12-19T14:56:28.151Z,40.55
2022-12-19T14:58:56.041Z,32.42
2022-12-19T15:01:09.608Z,34.08
2022-12-19T15:03:20.930Z,35.45
2022-12-19T15:05:25.062Z,40.65
2022-12-19T15:07:30.891Z,43.40
2022-12-19T15:11:09.049Z,36.42
2022-12-19T15:13:30.116Z,34.55
2022-12-19T15:15:04.728Z,33.05
2022-12-19T15:17:21.553Z,38.78
2022-12-19T15:19:25.298Z,38.30
2022-12-19T15:21:29.514Z,38.83
2022-12-19T15:23:33.732Z,37.05
2022-12-19T15:26:06.536Z,40.85
2022-12-19T15:28:02.560Z,41.90
2022-12-19T15:30:16.777Z,44.70
2022-12-19T15:32:20.201Z,35.95
2022-12-19T15:34:35.805Z,35.50
2022-12-19T15:36:41.587Z,40.63
2022-12-19T15:38:45.613Z,42.20
2022-12-19T15:40:50.414Z,35.35
2022-12-19T15:42:58.519Z,35.88
2022-12-19T15:45:02.985Z,43.08
2022-12-19T15:47:08.963Z,36.78
2022-12-19T15:49:16.241Z,39.28
2022-12-19T15:51:19.770Z,39.70
2022-12-19T15:53:39.908Z,37.95
2022-12-19T15:55:44.234Z,35.20
2022-12-19T15:57:53.199Z,39.42
2022-12-19T15:59:59.364Z,38.17
2022-12-19T16:02:03.970Z,42.25
2022-12-19T16:04:13.609Z,40.35
2022-12-19T16:06:17.202Z,39.30
2022-12-19T16:08:22.872Z,45.33
2022-12-19T16:10:27.515Z,39.78
2022-12-19T16:12:37.895Z,40.45
2022-12-19T16:14:43.015Z,39.00
2022-12-19T16:16:52.029Z,43.65
2022-12-19T16:18:55.902Z,40.97
2022-12-19T16:20:59.805Z,42.10
2022-12-19T16:23:03.506Z,39.88
2022-12-19T16:25:07.659Z,43.08
2022-12-19T16:27:16.931Z,35.97
2022-12-19T16:29:21.706Z,37.35
2022-12-19T16:31:28.285Z,48.50
2022-12-19T16:33:32.620Z,43.35
2022-12-19T16:37:59.842Z,41.10
2022-12-19T16:40:03.131Z,38.55
2022-12-19T16:42:07.349Z,48.05
2022-12-19T16:44:19.451Z,49.05
2022-12-19T16:46:30.586Z,42.45
2022-12-19T16:48:36.773Z,41.03
2022-12-19T16:50:40.266Z,41.53
2022-12-19T16:52:46.853Z,42.83
2022-12-19T16:54:51.121Z,40.38
2022-12-19T16:56:55.372Z,47.00
2022-12-19T16:59:01.451Z,39.50
2022-12-19T17:01:05.584Z,46.20
2022-12-19T17:03:14.104Z,47.38
2022-12-19T17:05:23.196Z,50.70
2022-12-19T17:07:26.652Z,43.80
2022-12-19T17:09:29.985Z,44.03
2022-12-19T17:11:33.467Z,53.30
2022-12-19T17:13:36.727Z,53.72
2022-12-19T17:15:40.057Z,50.55
2022-12-19T17:17:43.443Z,49.30
2022-12-19T17:19:47.416Z,48.30
2022-12-19T17:21:53.025Z,44.60
2022-12-19T17:23:56.589Z,57.33
2022-12-19T17:26:01.878Z,41.20
2022-12-19T17:28:05.264Z,52.83
2022-12-19T17:30:09.940Z,44.60
2022-12-19T17:32:23.237Z,48.22
2022-12-19T17:34:31.974Z,53.55
2022-12-19T17:36:37.888Z,50.38
2022-12-19T17:38:43.480Z,54.65
2022-12-19T17:40:46.978Z,46.22
2022-12-19T17:42:51.421Z,43.10
2022-12-19T17:44:54.958Z,46.90
2022-12-19T17:46:58.169Z,45.80
2022-12-19T17:49:01.495Z,45.88
2022-12-19T17:51:04.854Z,42.97
2022-12-19T17:53:14.470Z,47.90
2022-12-19T17:55:23.196Z,46.38
2022-12-19T17:57:26.978Z,53.05
2022-12-19T17:59:30.745Z,49.25
2022-12-19T18:01:36.140Z,44.92
2022-12-19T18:03:40.270Z,50.38
2022-12-19T18:05:44.025Z,56.30
2022-12-19T18:07:47.663Z,48.97
2022-12-19T18:09:51.212Z,49.03
2022-12-19T18:11:56.151Z,52.38
2022-12-19T18:13:59.772Z,54.70
2022-12-19T18:16:04.697Z,46.80
2022-12-19T18:18:13.722Z,46.20
2022-12-19T18:20:27.759Z,53.42
2022-12-19T18:22:34.600Z,54.22
2022-12-19T18:24:38.198Z,46.63
2022-12-19T18:26:42.235Z,49.63
2022-12-19T18:28:50.595Z,46.03
2022-12-19T18:30:59.606Z,45.60
2022-12-19T18:33:05.525Z,53.03
2022-12-19T18:35:16.986Z,41.83
2022-12-19T18:37:20.691Z,55.10
2022-12-19T18:39:26.038Z,44.63
2022-12-19T18:41:29.570Z,40.83
2022-12-19T18:43:33.667Z,47.58
2022-12-19T18:45:40.691Z,42.35
2022-12-19T18:47:49.737Z,54.55
2022-12-19T18:49:55.428Z,45.70
2022-12-19T18:52:01.170Z,40.33
2022-12-19T18:54:12.095Z,45.45
2022-12-19T18:56:16.041Z,49.00
2022-12-19T18:58:19.871Z,48.70
2022-12-19T19:00:24.941Z,43.92
2022-12-19T19:02:30.501Z,48.92
2022-12-19T19:04:34.364Z,54.58
2022-12-19T19:06:38.363Z,42.53
2022-12-19T19:08:41.895Z,47.13
2022-12-19T19:10:46.536Z,46.10
2022-12-19T19:12:50.732Z,51.53
2022-12-19T19:14:54.036Z,51.70
2022-12-19T19:16:57.750Z,43.17
2022-12-19T19:19:02.649Z,43.75
2022-12-19T19:21:07.163Z,47.30
2022-12-19T19:23:15.464Z,45.90
2022-12-19T19:25:19.304Z,50.90
2022-12-19T19:27:22.618Z,47.22
2022-12-19T19:29:26.322Z,53.60
2022-12-19T19:31:33.360Z,50.38
2022-12-19T19:33:41.045Z,50.75
2022-12-19T19:35:47.778Z,40.97
2022-12-19T19:37:53.857Z,36.53
2022-12-19T19:39:57.195Z,41.30
2022-12-19T19:42:01.169Z,43.85
2022-12-19T19:44:04.612Z,53.70
2022-12-19T19:46:08.146Z,54.33
2022-12-19T19:48:11.900Z,47.40
2022-12-19T19:50:15.647Z,47.60
2022-12-19T19:52:20.693Z,51.30
2022-12-19T19:54:27.239Z,45.95
2022-12-19T19:56:31.104Z,52.33
2022-12-19T19:58:34.838Z,48.35
2022-12-19T20:00:38.096Z,49.97
2022-12-19T20:02:41.931Z,43.08
2022-12-19T20:04:46.158Z,45.60
2022-12-19T20:06:49.564Z,50.13
2022-12-19T20:08:54.278Z,60.30
2022-12-19T20:10:58.365Z,44.60
2022-12-19T20:13:02.001Z,44.03
2022-12-19T20:15:06.663Z,44.80
2022-12-19T20:17:10.489Z,44.80
2022-12-19T20:19:15.745Z,48.03
2022-12-19T20:21:20.161Z,50.25
2022-12-19T20:23:23.539Z,48.88
2022-12-19T20:25:28.666Z,48.35
2022-12-19T20:27:32.470Z,41.85
2022-12-19T20:29:36.687Z,53.65
2022-12-19T20:31:40.649Z,47.45
2022-12-19T20:33:44.010Z,58.45
2022-12-19T20:35:47.369Z,41.30
2022-12-19T20:37:50.965Z,41.75
2022-12-19T20:39:54.481Z,50.20
2022-12-19T20:41:59.393Z,54.30
2022-12-19T20:44:03.081Z,50.53
2022-12-19T20:46:12.638Z,54.55
2022-12-19T20:48:17.417Z,51.80
2022-12-19T20:50:22.550Z,46.40
2022-12-19T20:52:30.138Z,48.47
2022-12-19T20:54:40.128Z,45.95
2022-12-19T20:56:45.595Z,50.08
2022-12-19T20:58:52.718Z,57.08
2022-12-19T21:01:15.548Z,52.38
2022-12-19T21:03:28.921Z,42.42
2022-12-19T21:05:33.462Z,46.25
2022-12-19T21:07:37.172Z,46.22
2022-12-19T21:09:44.893Z,42.88
2022-12-19T21:11:48.301Z,41.65
2022-12-19T21:13:53.371Z,41.58
2022-12-19T21:15:58.544Z,38.70
2022-12-19T21:18:02.583Z,48.42
2022-12-19T21:20:07.736Z,41.40
2022-12-19T21:22:11.613Z,43.33
2022-12-19T21:24:15.057Z,48.05
2022-12-19T21:26:18.700Z,49.28
2022-12-19T21:28:22.097Z,48.35
2022-12-19T21:30:26.970Z,44.42
2022-12-19T21:32:30.207Z,47.25
2022-12-19T21:34:33.702Z,45.15
2022-12-19T21:36:38.564Z,50.97
2022-12-19T21:38:42.132Z,56.67
2022-12-19T21:40:45.868Z,44.42
2022-12-19T21:42:50.069Z,43.50
2022-12-19T21:44:53.594Z,44.45
2022-12-19T21:46:58.606Z,42.28
2022-12-19T21:49:02.976Z,45.70
2022-12-19T21:51:07.297Z,44.40
2022-12-19T21:53:10.914Z,47.28
2022-12-19T21:55:14.276Z,49.80
2022-12-19T21:57:17.859Z,51.83
2022-12-19T21:59:21.300Z,45.65
2022-12-19T22:01:25.879Z,47.55
2022-12-19T22:03:30.823Z,50.78
2022-12-19T22:05:34.830Z,46.70
2022-12-19T22:07:38.080Z,57.95
2022-12-19T22:09:41.434Z,53.42
2022-12-19T22:11:46.153Z,52.47
2022-12-19T22:13:50.787Z,56.35
2022-12-19T22:15:54.192Z,48.03
2022-12-19T22:17:58.079Z,52.17
2022-12-19T22:20:02.993Z,50.97
2022-12-19T22:22:06.199Z,54.45
2022-12-19T22:24:13.315Z,35.50
2022-12-19T22:26:18.718Z,56.67
2022-12-19T22:28:22.416Z,53.88
2022-12-19T22:30:26.086Z,45.33
2022-12-19T22:32:31.069Z,54.85
2022-12-19T22:34:34.909Z,51.50
2022-12-19T22:36:41.272Z,58.08
2022-12-19T22:38:46.271Z,47.13
2022-12-19T22:40:50.000Z,53.17
2022-12-19T22:42:53.500Z,48.53
2022-12-19T22:44:56.878Z,52.97
2022-12-19T22:47:00.823Z,60.17
2022-12-19T22:49:08.757Z,44.90
2022-12-19T22:51:12.590Z,54.90
2022-12-19T22:53:17.353Z,52.25
2022-12-19T22:55:21.030Z,51.60
2022-12-19T22:57:24.336Z,51.97
2022-12-19T22:59:27.597Z,54.75
2022-12-19T23:01:32.802Z,52.53
2022-12-19T23:03:36.466Z,54.95
2022-12-19T23:05:40.376Z,53.15
2022-12-19T23:07:44.040Z,53.60
2022-12-19T23:09:48.704Z,52.63
2022-12-19T23:11:51.957Z,53.28
2022-12-19T23:13:56.228Z,54.22
2022-12-19T23:15:59.919Z,57.83
2022-12-19T23:18:03.589Z,60.17
2022-12-19T23:20:09.108Z,56.28
2022-12-19T23:22:12.506Z,56.78
2022-12-19T23:24:16.219Z,52.80
2022-12-19T23:26:22.658Z,54.05
2022-12-19T23:28:26.464Z,51.67
2022-12-19T23:30:29.924Z,55.88
2022-12-19T23:32:33.693Z,60.83
2022-12-19T23:34:38.200Z,56.20
2022-12-19T23:37:12.663Z,47.25
2022-12-19T23:39:05.527Z,56.90
2022-12-19T23:41:10.979Z,55.10
2022-12-19T23:43:19.219Z,61.00
2022-12-19T23:45:23.102Z,52.80
2022-12-19T23:47:28.762Z,55.38
2022-12-19T23:49:32.813Z,49.38
2022-12-19T23:51:36.064Z,47.10
2022-12-19T23:53:39.321Z,53.90
2022-12-19T23:55:42.676Z,60.20
2022-12-19T23:57:45.894Z,63.10
2022-12-19T23:59:50.493Z,55.78
